Startpagina
METAR-TAF:

METAR-TAF

Vliegvelden :

Recife, Pernambuco, Brazilië

Aeroporto Internacional do Recife

breedte: 08-08S, lengte: 034-55W, hoogte: 19 m

Actueel weer

Dit bericht is 16 minuten geleden gemaakt, om 21:00 UTC
Wind 10 kt uit het oostzuidoosten
Temperatuur 24°C
Vochtigheid 78%
Druk 1014 hPa
Zicht 10 km of meer
Verspreide wolken op 2300 ft
Gebroken wolken op 6000 ft

METAR: SBRF 242100Z 11010KT 9999 SCT023 BKN060 24/20 Q1014

Tijdstip: 18:16 (21:16 UTC)

Verwachting

Dit bericht is 6 uur en het 16 minuten geleden gemaakt, om 15:00 UTC
Verwachting geldig van 24 om 18 UTC tot 25 om 18 UTC
Wind 11 kt uit het zuidoosten
Zicht: 8000 m
Verspreide wolken op 2200 ft
Tijdelijke
van 24 om 19 UTC tot 24 om 21 UTC
Zicht: 5000 m
Gebroken wolken op 1400 ft
regen

TAF: SBRF 241500Z 2418/2518 14011KT 8000 SCT022 TN24/2508Z TX28/2515Z TEMPO 2419/2421 5000 RA BKN014 RMK PEA

Waarnemingen en weersverwachtingen van meer dan 4000 vliegvelden (METAR en TAF).

De beschikbare stations zijn de gele en rode punten op de kaart.

Ga met uw muis naar het station om de naam te zien.

Klik dan om waarnemingen en weersverwachtingen te zien.

kaart wijzigen: klik op de groene knoppen met een zwart kruis om in te zoomen, op de groene knop met een streepje om uit te zoomen of op de groene pijlen voor aangrenzende kaarten.


METAR-TAF: